Latest Weather Observations for Ben Nevis

IDV60801

Issued at 6:34 pm EST Saturday 18 April 2015 (issued every 30 minutes, with the page automatically refreshed every 10 minutes)

About weather observations | Map of weather stations | Latest weather observations for VIC | Other Formats
Station Details ID: 079101 Name: BEN NEVIS Lat: -37.23 Lon: 143.20 Height: 875.0 m
Data from the previous 72 hours. | See also: Recent months at Ben Nevis
Date/Time
EST
Temp
°C
App
Temp
°C
Dew
Point
Rel
Hum
%
Delta-T
°C
Wind Press
QNH
hPa
Press
MSL
hPa
Rain
since 9 am
mm
Dir
 
Spd
km/h
Gust
km/h
Spd
kts
Gust
kts
18/06:30pm 7.5 -0.5 7.4 99 0.0 SSW 39 59 21 32 - - 1.8
18/06:25pm 7.5 -0.1 7.4 99 0.0 SSW 37 59 20 32 - - 1.8
18/06:00pm 7.5 -0.9 7.2 98 0.1 SSW 41 57 22 31 - - 1.6
18/05:30pm 8.6 1.0 7.5 93 0.5 SW 37 61 20 33 - - 0.4
18/05:23pm 10.5 5.2 8.3 86 1.1 WSW 26 61 14 33 - - 0.2
18/05:22pm 11.0 6.0 8.2 83 1.4 WSW 24 48 13 26 - - 0.0
18/05:00pm 12.0 9.0 7.7 75 2.2 W 13 22 7 12 - - 0.0
18/04:30pm 12.1 9.9 7.8 75 2.2 W 9 20 5 11 - - 0.0
18/04:00pm 12.5 9.6 8.2 75 2.2 WNW 13 26 7 14 - - 0.0
18/03:30pm 12.7 8.8 8.8 77 2.0 W 19 33 10 18 - - 0.0
18/03:00pm 13.3 10.1 8.4 72 2.6 WNW 15 35 8 19 - - 0.0
18/02:30pm 14.9 12.3 9.5 70 2.9 WNW 13 22 7 12 - - 0.0
18/02:00pm 13.4 10.0 7.8 69 2.9 WNW 15 28 8 15 - - 0.0
18/01:30pm 14.4 11.6 8.6 68 3.1 W 13 22 7 12 - - 0.0
18/01:00pm 13.9 11.7 7.9 67 3.1 NNW 9 20 5 11 - - 0.0
18/12:30pm 12.7 10.3 8.8 77 2.0 W 11 20 6 11 - - 0.0
18/12:00pm 11.4 9.6 9.5 88 1.0 WNW 9 17 5 9 - - 0.0
18/11:30am 10.4 8.8 10.2 99 0.1 WNW 9 13 5 7 - - 0.0
18/11:00am 10.0 8.7 9.9 99 0.1 WNW 7 13 4 7 - - 0.0
18/10:30am 8.3 6.6 8.2 99 0.1 NNW 7 17 4 9 - - 0.0
18/10:00am 8.7 6.7 8.6 99 0.1 NW 9 15 5 8 - - 0.0
18/09:30am 8.8 6.8 8.7 99 0.1 WNW 9 17 5 9 - - 0.0
18/09:00am 8.6 6.9 8.5 99 0.1 NW 7 15 4 8 - - 4.4
18/08:30am 8.4 6.3 8.3 99 0.1 WNW 9 15 5 8 - - 4.4
18/08:00am 8.4 6.7 8.3 99 0.1 WNW 7 13 4 7 - - 4.4
18/07:30am 8.3 6.2 8.2 99 0.1 W 9 15 5 8 - - 4.4
18/07:00am 8.1 4.4 8.0 99 0.1 WSW 17 22 9 12 - - 4.4
18/06:30am 8.2 5.3 8.1 99 0.1 W 13 20 7 11 - - 4.4
18/06:00am 8.4 5.5 8.3 99 0.1 W 13 20 7 11 - - 4.4
18/05:30am 8.6 6.6 8.5 99 0.1 W 9 15 5 8 - - 4.4
18/05:00am 8.6 6.2 8.5 99 0.1 W 11 19 6 10 - - 4.4
18/04:30am 8.7 6.7 8.6 99 0.1 W 9 19 5 10 - - 4.4
18/04:00am 8.7 6.7 8.6 99 0.1 NW 9 15 5 8 - - 4.4
18/03:30am 9.0 7.4 8.9 99 0.1 NW 7 15 4 8 - - 4.4
18/03:00am 9.1 7.6 9.0 99 0.1 NW 7 13 4 7 - - 4.2
18/02:30am 9.2 7.3 9.1 99 0.1 NW 9 13 5 7 - - 4.2
18/02:00am 9.3 7.4 9.2 99 0.1 WNW 9 15 5 8 - - 4.2
18/01:30am 9.3 7.4 9.2 99 0.1 NW 9 17 5 9 - - 4.0
18/01:00am 9.4 7.2 9.3 99 0.1 NNW 11 24 6 13 - - 3.8
18/12:30am 9.6 7.0 9.5 99 0.1 NNW 13 20 7 11 - - 3.4
18/12:00am 9.8 7.3 9.7 99 0.1 NNW 13 28 7 15 - - 3.0
 
Date/Time
EST
Temp
°C
App
Temp
°C
Dew
Point
Rel
Hum
%
Delta-T
°C
Wind Press
QNH
hPa
Press
MSL
hPa
Rain
since 9 am
mm
Dir
 
Spd
km/h
Gust
km/h
Spd
kts
Gust
kts
17/11:30pm 9.8 6.9 9.7 99 0.1 N 15 24 8 13 - - 3.0
17/11:00pm 9.7 7.2 9.6 99 0.1 N 13 22 7 12 - - 3.0
17/10:30pm 9.4 6.4 9.3 99 0.1 N 15 24 8 13 - - 3.0
17/10:00pm 9.3 6.3 9.2 99 0.1 N 15 22 8 12 - - 2.6
17/09:30pm 9.4 6.4 9.3 99 0.1 N 15 26 8 14 - - 2.4
17/09:00pm 8.9 5.4 8.8 99 0.1 N 17 26 9 14 - - 2.2
17/08:30pm 9.1 5.7 9.0 99 0.1 NNE 17 26 9 14 - - 2.2
17/08:00pm 8.8 5.3 8.7 99 0.1 NNE 17 28 9 15 - - 2.2
17/07:30pm 8.1 4.4 8.0 99 0.1 NNE 17 24 9 13 - - 2.0
17/07:00pm 8.0 3.9 7.9 99 0.0 NNE 19 28 10 15 - - 1.8
17/06:30pm 7.9 3.2 7.6 98 0.1 NNE 22 32 12 17 - - 1.2
17/06:00pm 7.9 3.1 7.3 96 0.3 NNE 22 32 12 17 - - 1.0
17/05:30pm 8.3 3.2 7.5 95 0.4 NNE 24 35 13 19 - - 1.0
17/05:00pm 8.5 4.1 7.4 93 0.5 NE 20 33 11 18 - - 1.0
17/04:30pm 8.6 4.8 7.4 92 0.6 NNE 17 24 9 13 - - 1.0
17/04:00pm 8.5 4.2 7.1 91 0.7 NNE 19 26 10 14 - - 1.0
17/03:30pm 8.7 5.0 8.1 96 0.3 NNE 17 24 9 13 - - 1.0
17/03:00pm 8.1 6.2 7.5 96 0.3 NNE 7 13 4 7 - - 1.0
17/02:30pm 8.0 5.6 6.9 93 0.5 NNE 9 13 5 7 - - 0.8
17/02:00pm 8.3 5.9 7.2 93 0.5 WNW 9 17 5 9 - - 0.8
17/01:30pm 8.4 5.2 6.7 89 0.8 WSW 13 19 7 10 - - 0.6
17/01:00pm 9.5 7.8 7.6 88 1.0 WSW 6 9 3 5 - - 0.4
17/12:30pm 10.2 8.4 7.1 81 1.5 WSW 6 7 3 4 - - 0.2
17/12:00pm 10.9 9.8 5.0 67 2.8 CALM 0 0 0 0 - - 0.0
17/11:30am 11.1 9.9 4.8 65 3.0 CALM 0 0 0 0 - - 0.0
17/11:00am 11.0 9.7 4.2 63 3.2 CALM 0 0 0 0 - - 0.0
17/10:30am 10.9 8.5 4.4 64 3.1 WSW 6 9 3 5 - - 0.0
17/10:00am 11.1 9.0 3.9 61 3.4 WSW 4 7 2 4 - - 0.0
17/09:30am 11.0 9.7 4.0 62 3.3 CALM 0 0 0 0 - - 0.0
17/09:00am 10.0 6.9 1.4 55 3.8 WSW 7 9 4 5 - - 0.0
17/08:30am 9.4 6.5 2.5 62 3.1 WSW 7 9 4 5 - - 0.0
17/08:00am 8.9 6.2 0.4 55 3.6 WSW 4 6 2 3 - - 0.0
17/07:30am 8.5 5.2 0.0 55 3.6 WSW 7 9 4 5 - - 0.0
17/07:00am 8.7 5.0 -0.3 53 3.7 WSW 9 13 5 7 - - 0.0
17/06:30am 9.2 4.6 -0.7 50 4.1 WSW 13 17 7 9 - - 0.0
17/06:00am 9.3 4.4 -3.3 41 4.9 WSW 13 15 7 8 - - 0.0
17/05:30am 9.4 4.6 -2.5 43 4.7 NNW 13 15 7 8 - - 0.0
17/05:00am 9.8 5.1 -5.3 34 5.7 NNW 11 15 6 8 - - 0.0
17/04:30am 10.0 5.7 -4.4 36 5.5 NNW 9 13 5 7 - - 0.0
17/04:00am 10.9 6.1 -10.5 21 7.2 NNE 9 15 5 8 - - 0.0
17/03:30am 9.6 6.5 3.4 65 2.8 NE 9 11 5 6 - - 0.0
17/03:00am 10.1 6.4 -3.2 39 5.2 NE 7 11 4 6 - - 0.0
17/02:30am 10.4 6.2 -0.7 46 4.7 NE 11 13 6 7 - - 0.0
17/02:00am 9.1 6.7 2.4 63 3.0 NE 4 9 2 5 - - 0.0
17/01:30am 9.3 4.8 0.0 52 3.9 NE 13 17 7 9 - - 0.0
17/01:00am 7.9 4.8 3.8 75 1.9 ENE 9 13 5 7 - - 0.0
17/12:30am 7.8 3.6 4.0 77 1.7 E 15 20 8 11 - - 0.0
17/12:00am 8.3 5.1 3.0 69 2.4 SE 9 15 5 8 - - 0.0
 
Date/Time
EST
Temp
°C
App
Temp
°C
Dew
Point
Rel
Hum
%
Delta-T
°C
Wind Press
QNH
hPa
Press
MSL
hPa
Rain
since 9 am
mm
Dir
 
Spd
km/h
Gust
km/h
Spd
kts
Gust
kts
16/11:30pm 8.9 7.3 2.5 64 2.8 CALM 0 4 0 2 - - 0.0
16/11:00pm 9.0 6.6 2.1 62 3.0 S 4 6 2 3 - - 0.0
16/10:30pm 9.3 7.7 2.2 61 3.2 CALM 0 0 0 0 - - 0.0
16/10:00pm 9.1 7.4 1.8 60 3.2 CALM 0 0 0 0 - - 0.0
16/09:30pm 9.2 7.5 2.1 61 3.1 CALM 0 4 0 2 - - 0.0
16/09:00pm 8.9 5.6 2.7 65 2.8 S 9 11 5 6 - - 0.0
16/08:30pm 8.1 4.7 4.1 76 1.8 S 11 15 6 8 - - 0.0
16/08:00pm 8.4 5.0 4.0 74 2.0 S 11 15 6 8 - - 0.0
16/07:30pm 8.5 4.4 4.1 74 2.0 S 15 20 8 11 - - 0.0
16/07:00pm 8.7 4.9 3.9 72 2.2 S 13 19 7 10 - - 0.0
16/06:30pm 8.8 4.6 4.0 72 2.2 S 15 20 8 11 - - 0.0
16/06:00pm 9.0 4.1 4.2 72 2.2 S 19 28 10 15 - - 0.0
16/05:30pm 9.5 5.4 4.1 69 2.5 SSW 15 22 8 12 - - 0.0
16/05:00pm 10.2 5.8 4.6 68 2.6 S 17 28 9 15 - - 0.0
16/04:30pm 11.1 7.0 4.3 63 3.2 S 15 24 8 13 - - 0.0
16/04:00pm 11.3 7.2 4.5 63 3.2 S 15 26 8 14 - - 0.0
16/03:30pm 11.4 8.0 4.2 61 3.4 S 11 17 6 9 - - 0.0
16/03:00pm 12.1 8.9 5.3 63 3.3 S 11 20 6 11 - - 0.0
16/02:30pm 12.0 9.7 5.9 66 3.0 S 7 15 4 8 - - 0.0
16/02:00pm 11.6 8.4 5.0 64 3.2 S 11 20 6 11 - - 0.0
16/01:30pm 11.2 8.5 5.5 68 2.8 S 9 17 5 9 - - 0.0
16/01:00pm 11.6 8.5 5.7 67 2.9 SSW 11 24 6 13 - - 0.0
16/12:30pm 11.0 8.5 6.7 75 2.1 S 9 15 5 8 - - 0.0
16/12:00pm 10.4 7.2 6.7 78 1.8 S 13 22 7 12 - - 0.0
16/11:30am 10.3 7.5 6.8 79 1.7 SSW 11 19 6 10 - - 0.0
16/11:00am 8.3 5.0 6.6 89 0.8 S 13 22 7 12 - - 0.0
16/10:30am 7.9 4.9 7.6 98 0.1 SSW 13 26 7 14 - - 0.0
16/10:00am 7.9 4.2 7.8 99 0.0 S 17 32 9 17 - - 0.0
16/09:30am 7.5 3.7 7.4 99 0.0 SSW 17 32 9 17 - - 0.0
16/09:00am 7.4 1.8 7.3 99 0.0 S 26 41 14 22 - - 0.0
16/08:34am 7.7 1.8 7.6 99 0.0 SSW 28 46 15 25 - - 0.0
16/08:30am 7.7 1.8 7.6 99 0.0 SSW 28 44 15 24 - - 0.0
16/08:00am 8.2 3.6 8.1 99 0.1 SSW 22 35 12 19 - - 0.0
16/07:30am 8.0 4.7 7.9 99 0.0 S 15 24 8 13 - - 0.0
16/07:00am 8.4 4.8 8.3 99 0.1 S 17 26 9 14 - - 0.0
16/06:30am 8.7 3.8 8.6 99 0.1 SSW 24 41 13 22 - - 0.0
16/06:00am 9.0 4.6 8.9 99 0.1 SSW 22 35 12 19 - - 0.0
16/05:30am 8.8 4.0 8.7 99 0.1 SSW 24 37 13 20 - - 0.0
16/05:00am 8.7 2.1 8.6 99 0.1 SSW 33 44 18 24 - - 0.0
16/04:30am 8.7 2.1 8.6 99 0.1 SSW 33 46 18 25 - - 0.0
16/04:00am 9.0 1.4 8.9 99 0.1 SSW 39 52 21 28 - - 0.0
16/03:30am 9.3 1.7 9.2 99 0.1 SSW 39 56 21 30 - - 0.0
16/03:22am 9.2 1.2 9.1 99 0.1 SSW 41 59 22 32 - - 0.0
16/03:00am 9.3 0.8 9.2 99 0.1 SSW 44 61 24 33 - - 0.0
16/02:30am 9.6 1.7 9.5 99 0.1 SSW 41 50 22 27 - - 0.0
16/02:05am 9.2 1.6 9.1 99 0.1 SSW 39 57 21 31 - - 0.0
16/02:00am 9.2 1.2 9.1 99 0.1 SSW 41 57 22 31 - - 0.0
16/01:30am 9.5 2.0 9.4 99 0.1 SSW 39 52 21 28 - - 0.0
16/01:00am 9.9 3.2 9.8 99 0.1 SSW 35 46 19 25 - - 0.0
16/12:30am 10.8 4.7 10.6 99 0.1 SSW 33 50 18 27 - - 0.0
16/12:00am 10.9 5.4 10.7 99 0.1 SSW 30 41 16 22 - - 0.0
 
Date/Time
EST
Temp
°C
App
Temp
°C
Dew
Point
Rel
Hum
%
Delta-T
°C
Wind Press
QNH
hPa
Press
MSL
hPa
Rain
since 9 am
mm
Dir
 
Spd
km/h
Gust
km/h
Spd
kts
Gust
kts
15/11:30pm 11.0 5.2 10.8 99 0.1 SSW 32 46 17 25 - - 0.0
15/11:00pm 11.2 6.6 10.9 98 0.2 SSW 26 37 14 20 - - 0.0
15/10:30pm 11.2 6.9 10.7 97 0.3 SSW 24 32 13 17 - - 0.0
15/10:00pm 11.6 6.7 11.3 98 0.2 SSW 28 35 15 19 - - 0.0
15/09:30pm 12.0 7.2 11.5 97 0.3 SSW 28 41 15 22 - - 0.0
15/09:00pm 12.1 7.2 11.3 95 0.4 SSW 28 39 15 21 - - 0.0
15/08:30pm 12.6 7.1 10.7 88 1.0 SSW 30 41 16 22 - - 0.0
15/08:00pm 13.1 7.1 10.1 82 1.6 SSW 32 44 17 24 - - 0.0
15/07:47pm 13.5 7.8 9.9 79 1.9 SSW 30 48 16 26 - - 0.0
15/07:30pm 14.0 7.9 9.8 76 2.3 SSW 32 43 17 23 - - 0.0
15/07:00pm 14.9 10.8 10.1 73 2.6 SSW 22 32 12 17 - - 0.0

Other Formats:

Comma delimited format used in spreadsheet applications
http://www.bom.gov.au/fwo/IDV60801/IDV60801.94835.axf

JavaScript Object Notation format (JSON) in row-major order
http://www.bom.gov.au/fwo/IDV60801/IDV60801.94835.json